Flugplatz Wittmundhafen Airport

Bericht für ETNT

vom 25.09. um 10:20 UTC

Wind 12 kt aus 190°

Sichtweite 10 km oder mehr

gering bewölkt in 2200 ft

Temperatur 14.0°C

Taupunkt 7.0°C

Luftfeuchtigkeit 63%

Luftdruck 995 hPa

ETNT 251020Z 19012KT 9999 FEW022 14/07 Q0995 BLU+FCST CNL

Prognose für ETNT

vom 25.09. um 07:25 UTC

Zwischen 08:00 UTC und 17:00 UTC

Wind 10 kt aus 210° in Böen 20 kt

Sichtweite 10 km oder mehr

keine signifikanten Wettererscheinungen

aufgelockert bewölkt in 1200 ft

aufgebrochene Bewölkung in 5000 ft

TAF AMD ETNT 250725Z 2508/2517 21010G20KT 9999 NSW SCT012 BKN050 BY ETGL
Impressum